BAW909 EGLL-EDDF
Flight info
| Callsign | BAW909 |
|---|---|
| Flight time | 1h 5m |
| Altitude | 35000 |
| Route | BPK Q295 MATCH DCT REDFA DCT TACHA DCT NOLRU DCT DIXAT DIXAT1A |
| Aircraft | A20N/M-SDE2E3FGHIRWXY/LB1 |
Departure
| Time | 2026-05-06 20:53 |
|---|---|
| Airport | London Heathrow Airport (EGLL) |
Arrival
| Time | 2026-05-06 21:58 |
|---|---|
| Airport | Frankfurt Main Airport (EDDF) |
| Time | Latitude | Longitude | Altitude | Speed | Heading |
|---|---|---|---|---|---|
| 2026-05-06 20:24 | 51.47087 | -0.48584 | 91 ft | 0 kts | 269° |
| 2026-05-06 20:45 | 51.47087 | -0.48581 | 89 ft | 1 kts | 269° |
| 2026-05-06 20:46 | 51.47087 | -0.48563 | 88 ft | 2 kts | 269° |
| 2026-05-06 20:46 | 51.47087 | -0.48538 | 88 ft | 3 kts | 269° |
| 2026-05-06 20:46 | 51.47087 | -0.48511 | 87 ft | 2 kts | 267° |
| 2026-05-06 20:46 | 51.47090 | -0.48486 | 89 ft | 2 kts | 235° |
| 2026-05-06 20:47 | 51.47100 | -0.48469 | 88 ft | 1 kts | 195° |
| 2026-05-06 20:47 | 51.47102 | -0.48468 | 88 ft | 0 kts | 185° |
| 2026-05-06 20:49 | 51.47087 | -0.48470 | 90 ft | 4 kts | 185° |
| 2026-05-06 20:50 | 51.47040 | -0.48472 | 89 ft | 9 kts | 180° |
| 2026-05-06 20:50 | 51.46966 | -0.48471 | 89 ft | 12 kts | 179° |
| 2026-05-06 20:50 | 51.46902 | -0.48470 | 91 ft | 11 kts | 179° |
| 2026-05-06 20:50 | 51.46829 | -0.48469 | 90 ft | 12 kts | 179° |
| 2026-05-06 20:51 | 51.46732 | -0.48468 | 90 ft | 15 kts | 179° |
| 2026-05-06 20:51 | 51.46627 | -0.48468 | 93 ft | 16 kts | 180° |
| 2026-05-06 20:51 | 51.46522 | -0.48468 | 89 ft | 17 kts | 180° |
| 2026-05-06 20:51 | 51.46479 | -0.48413 | 88 ft | 9 kts | 97° |
| 2026-05-06 20:52 | 51.46479 | -0.48387 | 90 ft | 0 kts | 89° |
| 2026-05-06 20:52 | 51.46481 | -0.48035 | 87 ft | 69 kts | 89° |
| 2026-05-06 20:52 | 51.46485 | -0.46911 | 89 ft | 128 kts | 89° |
| 2026-05-06 20:52 | 51.46491 | -0.45291 | 356 ft | 150 kts | 88° |
| 2026-05-06 20:53 | 51.46480 | -0.43615 | 949 ft | 154 kts | 88° |
| 2026-05-06 20:53 | 51.46494 | -0.41941 | 1730 ft | 147 kts | 80° |
| 2026-05-06 20:53 | 51.46878 | -0.40385 | 2259 ft | 159 kts | 55° |
| 2026-05-06 20:53 | 51.47572 | -0.38876 | 2795 ft | 178 kts | 49° |
| 2026-05-06 20:54 | 51.48413 | -0.37245 | 3354 ft | 202 kts | 48° |
| 2026-05-06 20:54 | 51.49378 | -0.35419 | 3979 ft | 226 kts | 48° |
| 2026-05-06 20:54 | 51.50447 | -0.33400 | 4732 ft | 248 kts | 48° |
| 2026-05-06 20:54 | 51.51561 | -0.31132 | 5335 ft | 268 kts | 53° |
| 2026-05-06 20:55 | 51.52447 | -0.28532 | 5447 ft | 266 kts | 66° |
| 2026-05-06 20:55 | 51.53126 | -0.25752 | 5624 ft | 270 kts | 67° |
| 2026-05-06 20:55 | 51.53784 | -0.22910 | 6430 ft | 273 kts | 68° |
| 2026-05-06 20:55 | 51.54429 | -0.20091 | 7550 ft | 273 kts | 64° |
| 2026-05-06 20:56 | 51.55554 | -0.17647 | 8568 ft | 276 kts | 38° |
| 2026-05-06 20:56 | 51.57260 | -0.16249 | 9611 ft | 279 kts | 11° |
| 2026-05-06 20:56 | 51.59206 | -0.16024 | 10505 ft | 287 kts | 358° |
| 2026-05-06 20:56 | 51.61285 | -0.16017 | 10984 ft | 311 kts | 1° |
| 2026-05-06 20:57 | 51.63517 | -0.15658 | 11471 ft | 332 kts | 8° |
| 2026-05-06 20:57 | 51.65806 | -0.14907 | 12339 ft | 338 kts | 12° |
| 2026-05-06 20:57 | 51.68097 | -0.13943 | 13296 ft | 343 kts | 14° |
| 2026-05-06 20:57 | 51.70412 | -0.12874 | 14177 ft | 349 kts | 15° |
| 2026-05-06 20:58 | 51.72605 | -0.11270 | 14967 ft | 356 kts | 33° |
| 2026-05-06 20:58 | 51.74391 | -0.08467 | 15764 ft | 364 kts | 53° |
| 2026-05-06 20:58 | 51.75511 | -0.04777 | 16553 ft | 372 kts | 73° |
| 2026-05-06 20:58 | 51.75981 | -0.00651 | 17342 ft | 377 kts | 82° |
| 2026-05-06 20:59 | 51.76297 | 0.03593 | 18090 ft | 383 kts | 83° |
| 2026-05-06 20:59 | 51.76597 | 0.07884 | 18813 ft | 387 kts | 83° |
| 2026-05-06 20:59 | 51.76915 | 0.12224 | 19509 ft | 392 kts | 82° |
| 2026-05-06 20:59 | 51.77256 | 0.16613 | 20206 ft | 396 kts | 82° |
| 2026-05-06 21:00 | 51.77611 | 0.21042 | 20875 ft | 400 kts | 82° |
| 2026-05-06 21:00 | 51.78021 | 0.25505 | 21533 ft | 404 kts | 78° |
| 2026-05-06 21:00 | 51.78695 | 0.29868 | 22185 ft | 408 kts | 75° |
| 2026-05-06 21:00 | 51.79413 | 0.34333 | 22837 ft | 413 kts | 75° |
| 2026-05-06 21:01 | 51.80133 | 0.38846 | 23486 ft | 417 kts | 75° |
| 2026-05-06 21:01 | 51.80859 | 0.43411 | 24052 ft | 421 kts | 75° |
| 2026-05-06 21:01 | 51.81589 | 0.48019 | 24603 ft | 425 kts | 75° |
| 2026-05-06 21:01 | 51.82323 | 0.52662 | 25114 ft | 429 kts | 75° |
| 2026-05-06 21:02 | 51.83063 | 0.57351 | 25627 ft | 432 kts | 75° |
| 2026-05-06 21:02 | 51.83807 | 0.62085 | 26150 ft | 436 kts | 75° |
| 2026-05-06 21:02 | 51.84545 | 0.66787 | 26633 ft | 439 kts | 75° |
| 2026-05-06 21:02 | 51.85297 | 0.71600 | 27113 ft | 443 kts | 75° |
| 2026-05-06 21:03 | 51.86053 | 0.76445 | 27594 ft | 446 kts | 75° |
| 2026-05-06 21:03 | 51.86813 | 0.81337 | 28049 ft | 450 kts | 75° |
| 2026-05-06 21:03 | 51.87576 | 0.86257 | 28493 ft | 453 kts | 76° |
| 2026-05-06 21:03 | 51.88342 | 0.91218 | 28922 ft | 456 kts | 76° |
| 2026-05-06 21:04 | 51.89111 | 0.96215 | 29342 ft | 459 kts | 76° |
| 2026-05-06 21:04 | 51.89886 | 1.01256 | 29756 ft | 462 kts | 76° |
| 2026-05-06 21:04 | 51.90650 | 1.06249 | 30146 ft | 465 kts | 76° |
| 2026-05-06 21:04 | 51.91428 | 1.11349 | 30504 ft | 468 kts | 76° |
| 2026-05-06 21:05 | 51.92208 | 1.16481 | 30873 ft | 471 kts | 76° |
| 2026-05-06 21:05 | 51.92989 | 1.21636 | 31252 ft | 473 kts | 76° |
| 2026-05-06 21:05 | 51.93771 | 1.26811 | 31720 ft | 472 kts | 76° |
| 2026-05-06 21:05 | 51.94549 | 1.31981 | 32195 ft | 472 kts | 76° |
| 2026-05-06 21:06 | 51.95323 | 1.37138 | 32672 ft | 471 kts | 76° |
| 2026-05-06 21:06 | 51.96094 | 1.42293 | 33136 ft | 470 kts | 76° |
| 2026-05-06 21:06 | 51.96862 | 1.47443 | 33591 ft | 469 kts | 76° |
| 2026-05-06 21:06 | 51.97615 | 1.52511 | 34080 ft | 467 kts | 76° |
| 2026-05-06 21:07 | 51.98369 | 1.57599 | 34433 ft | 467 kts | 76° |
| 2026-05-06 21:07 | 51.99123 | 1.62705 | 34762 ft | 467 kts | 76° |
| 2026-05-06 21:07 | 51.99874 | 1.67831 | 34889 ft | 466 kts | 78° |
| 2026-05-06 21:07 | 52.00258 | 1.73042 | 34977 ft | 465 kts | 90° |
| 2026-05-06 21:08 | 51.99990 | 1.78254 | 35011 ft | 464 kts | 99° |
| 2026-05-06 21:08 | 51.98992 | 1.88605 | 35011 ft | 464 kts | 99° |
| 2026-05-06 21:09 | 51.98009 | 1.98875 | 35002 ft | 463 kts | 99° |
| 2026-05-06 21:09 | 51.97033 | 2.09191 | 35004 ft | 463 kts | 99° |
| 2026-05-06 21:10 | 51.96047 | 2.19519 | 35002 ft | 463 kts | 99° |
| 2026-05-06 21:10 | 51.95051 | 2.29821 | 35001 ft | 463 kts | 99° |
| 2026-05-06 21:11 | 51.94052 | 2.40062 | 34994 ft | 463 kts | 99° |
| 2026-05-06 21:11 | 51.93038 | 2.50349 | 34996 ft | 463 kts | 99° |
| 2026-05-06 21:12 | 51.92009 | 2.60695 | 34994 ft | 465 kts | 100° |
| 2026-05-06 21:12 | 51.90975 | 2.70996 | 34994 ft | 466 kts | 100° |
| 2026-05-06 21:13 | 51.89942 | 2.81199 | 34991 ft | 464 kts | 100° |
| 2026-05-06 21:13 | 51.88889 | 2.91508 | 34990 ft | 463 kts | 100° |
| 2026-05-06 21:14 | 51.87825 | 3.01824 | 34985 ft | 468 kts | 100° |
| 2026-05-06 21:14 | 51.86753 | 3.12133 | 34972 ft | 463 kts | 100° |
| 2026-05-06 21:15 | 51.85667 | 3.22471 | 34973 ft | 465 kts | 100° |
| 2026-05-06 21:15 | 51.84581 | 3.32733 | 34974 ft | 468 kts | 100° |
| 2026-05-06 21:16 | 51.83484 | 3.43006 | 34975 ft | 463 kts | 100° |
| 2026-05-06 21:16 | 51.82384 | 3.53214 | 34971 ft | 460 kts | 100° |
| 2026-05-06 21:17 | 51.81269 | 3.63468 | 34971 ft | 463 kts | 100° |
| 2026-05-06 21:17 | 51.80149 | 3.73690 | 34968 ft | 464 kts | 100° |
| 2026-05-06 21:18 | 51.79029 | 3.83832 | 34965 ft | 461 kts | 101° |
| 2026-05-06 21:18 | 51.77893 | 3.94030 | 34963 ft | 457 kts | 101° |
| 2026-05-06 21:19 | 51.76763 | 4.04090 | 34964 ft | 457 kts | 101° |
| 2026-05-06 21:19 | 51.75622 | 4.14159 | 34962 ft | 457 kts | 101° |
| 2026-05-06 21:20 | 51.74471 | 4.24250 | 34963 ft | 457 kts | 101° |
| 2026-05-06 21:20 | 51.73318 | 4.34270 | 34957 ft | 457 kts | 101° |
| 2026-05-06 21:21 | 51.72149 | 4.44344 | 34961 ft | 457 kts | 101° |
| 2026-05-06 21:21 | 51.70971 | 4.54422 | 34959 ft | 457 kts | 101° |
| 2026-05-06 21:22 | 51.69785 | 4.64489 | 34956 ft | 457 kts | 101° |
| 2026-05-06 21:22 | 51.68599 | 4.74480 | 34962 ft | 457 kts | 101° |
| 2026-05-06 21:23 | 51.67397 | 4.84527 | 34960 ft | 457 kts | 101° |
| 2026-05-06 21:23 | 51.66186 | 4.94576 | 34963 ft | 457 kts | 101° |
| 2026-05-06 21:24 | 51.64966 | 5.04623 | 34964 ft | 457 kts | 101° |
| 2026-05-06 21:24 | 51.63746 | 5.14594 | 34961 ft | 457 kts | 101° |
| 2026-05-06 21:25 | 51.62509 | 5.24624 | 34956 ft | 457 kts | 102° |
| 2026-05-06 21:25 | 51.61264 | 5.34648 | 34956 ft | 457 kts | 102° |
| 2026-05-06 21:26 | 51.60012 | 5.44654 | 34957 ft | 457 kts | 102° |
| 2026-05-06 21:26 | 51.58769 | 5.54512 | 34957 ft | 457 kts | 102° |
| 2026-05-06 21:27 | 51.57497 | 5.64529 | 34963 ft | 457 kts | 102° |
| 2026-05-06 21:27 | 51.56217 | 5.74539 | 34963 ft | 457 kts | 102° |
| 2026-05-06 21:28 | 51.54928 | 5.84549 | 34958 ft | 457 kts | 102° |
| 2026-05-06 21:28 | 51.53639 | 5.94489 | 34936 ft | 457 kts | 103° |
| 2026-05-06 21:29 | 51.52332 | 6.04486 | 34936 ft | 458 kts | 103° |
| 2026-05-06 21:29 | 51.51021 | 6.14488 | 34937 ft | 458 kts | 103° |
| 2026-05-06 21:30 | 51.49379 | 6.24335 | 34936 ft | 457 kts | 110° |
| 2026-05-06 21:30 | 51.47054 | 6.33797 | 34940 ft | 456 kts | 113° |
| 2026-05-06 21:31 | 51.44751 | 6.43200 | 34935 ft | 456 kts | 113° |
| 2026-05-06 21:31 | 51.42426 | 6.52650 | 34927 ft | 456 kts | 113° |
| 2026-05-06 21:32 | 51.40090 | 6.62081 | 34923 ft | 456 kts | 113° |
| 2026-05-06 21:32 | 51.36597 | 6.76105 | 34912 ft | 452 kts | 113° |
| 2026-05-06 21:33 | 51.34271 | 6.85392 | 34920 ft | 452 kts | 113° |
| 2026-05-06 21:33 | 51.31926 | 6.94716 | 34932 ft | 451 kts | 114° |
| 2026-05-06 21:34 | 51.30759 | 6.99346 | 34722 ft | 448 kts | 114° |
| 2026-05-06 21:34 | 51.29594 | 7.03955 | 34244 ft | 446 kts | 114° |
| 2026-05-06 21:34 | 51.28420 | 7.08521 | 33599 ft | 444 kts | 116° |
| 2026-05-06 21:34 | 51.26847 | 7.12739 | 32779 ft | 441 kts | 129° |
| 2026-05-06 21:35 | 51.24775 | 7.16230 | 31919 ft | 439 kts | 142° |
| 2026-05-06 21:35 | 51.22253 | 7.18921 | 31102 ft | 436 kts | 154° |
| 2026-05-06 21:35 | 51.19532 | 7.21067 | 30322 ft | 438 kts | 156° |
| 2026-05-06 21:35 | 51.16780 | 7.23146 | 29480 ft | 437 kts | 156° |
| 2026-05-06 21:36 | 51.14039 | 7.25230 | 28596 ft | 436 kts | 155° |
| 2026-05-06 21:36 | 51.11321 | 7.27330 | 27751 ft | 434 kts | 155° |
| 2026-05-06 21:36 | 51.08629 | 7.29491 | 26913 ft | 432 kts | 154° |
| 2026-05-06 21:36 | 51.05967 | 7.31690 | 26115 ft | 430 kts | 153° |
| 2026-05-06 21:37 | 51.03317 | 7.33889 | 25346 ft | 428 kts | 153° |
| 2026-05-06 21:37 | 51.00680 | 7.36078 | 24588 ft | 426 kts | 154° |
| 2026-05-06 21:37 | 50.98091 | 7.38220 | 23859 ft | 424 kts | 154° |
| 2026-05-06 21:37 | 50.95483 | 7.40365 | 23067 ft | 422 kts | 153° |
| 2026-05-06 21:38 | 50.92882 | 7.42498 | 22224 ft | 420 kts | 154° |
| 2026-05-06 21:38 | 50.90295 | 7.44623 | 21401 ft | 417 kts | 154° |
| 2026-05-06 21:38 | 50.87722 | 7.46728 | 20604 ft | 415 kts | 154° |
| 2026-05-06 21:38 | 50.85161 | 7.48817 | 19821 ft | 413 kts | 153° |
| 2026-05-06 21:39 | 50.82624 | 7.50891 | 19055 ft | 410 kts | 154° |
| 2026-05-06 21:39 | 50.80095 | 7.52956 | 18303 ft | 408 kts | 154° |
| 2026-05-06 21:39 | 50.77581 | 7.55005 | 17486 ft | 405 kts | 154° |
| 2026-05-06 21:39 | 50.75120 | 7.57006 | 16680 ft | 402 kts | 153° |
| 2026-05-06 21:40 | 50.72640 | 7.59020 | 15882 ft | 399 kts | 153° |
| 2026-05-06 21:40 | 50.70184 | 7.61015 | 15196 ft | 392 kts | 153° |
| 2026-05-06 21:40 | 50.67804 | 7.62947 | 14647 ft | 380 kts | 153° |
| 2026-05-06 21:40 | 50.65469 | 7.64838 | 14084 ft | 375 kts | 153° |
| 2026-05-06 21:41 | 50.63156 | 7.66707 | 13521 ft | 371 kts | 153° |
| 2026-05-06 21:41 | 50.60871 | 7.68555 | 12906 ft | 368 kts | 154° |
| 2026-05-06 21:41 | 50.58604 | 7.70384 | 12306 ft | 364 kts | 154° |
| 2026-05-06 21:41 | 50.56359 | 7.72190 | 11728 ft | 361 kts | 154° |
| 2026-05-06 21:42 | 50.54131 | 7.73981 | 11141 ft | 359 kts | 153° |
| 2026-05-06 21:42 | 50.51945 | 7.75736 | 10586 ft | 356 kts | 153° |
| 2026-05-06 21:42 | 50.49757 | 7.77492 | 10265 ft | 347 kts | 153° |
| 2026-05-06 21:42 | 50.47815 | 7.79554 | 10155 ft | 332 kts | 134° |
| 2026-05-06 21:43 | 50.46451 | 7.82562 | 10061 ft | 345 kts | 113° |
| 2026-05-06 21:43 | 50.45691 | 7.86117 | 9961 ft | 342 kts | 105° |
| 2026-05-06 21:43 | 50.45018 | 7.89678 | 9887 ft | 340 kts | 106° |
| 2026-05-06 21:43 | 50.44358 | 7.93238 | 9884 ft | 336 kts | 107° |
| 2026-05-06 21:44 | 50.43710 | 7.96675 | 9880 ft | 327 kts | 108° |
| 2026-05-06 21:44 | 50.43034 | 8.00207 | 9874 ft | 342 kts | 108° |
| 2026-05-06 21:44 | 50.42358 | 8.03719 | 9871 ft | 341 kts | 108° |
| 2026-05-06 21:44 | 50.41672 | 8.07274 | 9869 ft | 341 kts | 108° |
| 2026-05-06 21:45 | 50.40983 | 8.10834 | 9884 ft | 341 kts | 108° |
| 2026-05-06 21:45 | 50.40293 | 8.14394 | 9877 ft | 341 kts | 108° |
| 2026-05-06 21:45 | 50.39603 | 8.17950 | 9867 ft | 341 kts | 108° |
| 2026-05-06 21:45 | 50.38911 | 8.21507 | 9869 ft | 341 kts | 108° |
| 2026-05-06 21:46 | 50.38219 | 8.25063 | 9864 ft | 341 kts | 108° |
| 2026-05-06 21:46 | 50.37525 | 8.28616 | 9866 ft | 341 kts | 108° |
| 2026-05-06 21:46 | 50.36829 | 8.32169 | 9867 ft | 341 kts | 108° |
| 2026-05-06 21:46 | 50.36133 | 8.35733 | 9870 ft | 342 kts | 109° |
| 2026-05-06 21:47 | 50.35440 | 8.39269 | 9862 ft | 343 kts | 109° |
| 2026-05-06 21:47 | 50.34738 | 8.42835 | 9871 ft | 343 kts | 109° |
| 2026-05-06 21:47 | 50.34044 | 8.46351 | 9861 ft | 341 kts | 109° |
| 2026-05-06 21:47 | 50.33342 | 8.49899 | 9453 ft | 343 kts | 109° |
| 2026-05-06 21:48 | 50.32630 | 8.53482 | 8719 ft | 347 kts | 109° |
| 2026-05-06 21:48 | 50.31912 | 8.57101 | 7874 ft | 353 kts | 109° |
| 2026-05-06 21:48 | 50.31187 | 8.60754 | 7348 ft | 347 kts | 108° |
| 2026-05-06 21:48 | 50.30472 | 8.64357 | 7240 ft | 353 kts | 109° |
| 2026-05-06 21:49 | 50.29743 | 8.68018 | 7132 ft | 351 kts | 108° |
| 2026-05-06 21:49 | 50.29018 | 8.71650 | 7031 ft | 350 kts | 109° |
| 2026-05-06 21:49 | 50.28294 | 8.75271 | 6806 ft | 348 kts | 109° |
| 2026-05-06 21:49 | 50.27584 | 8.78820 | 6465 ft | 341 kts | 109° |
| 2026-05-06 21:50 | 50.26895 | 8.82259 | 6102 ft | 324 kts | 109° |
| 2026-05-06 21:50 | 50.26234 | 8.85540 | 5519 ft | 314 kts | 108° |
| 2026-05-06 21:50 | 50.25577 | 8.88786 | 5396 ft | 321 kts | 108° |
| 2026-05-06 21:50 | 50.24901 | 8.92125 | 5268 ft | 321 kts | 108° |
| 2026-05-06 21:51 | 50.24281 | 8.95452 | 5148 ft | 318 kts | 102° |
| 2026-05-06 21:51 | 50.23589 | 8.98701 | 5027 ft | 315 kts | 121° |
| 2026-05-06 21:51 | 50.22185 | 9.01191 | 4973 ft | 300 kts | 146° |
| 2026-05-06 21:51 | 50.20375 | 9.02505 | 4970 ft | 278 kts | 163° |
| 2026-05-06 21:52 | 50.18600 | 9.03387 | 4969 ft | 260 kts | 165° |
| 2026-05-06 21:52 | 50.16896 | 9.03611 | 4969 ft | 239 kts | 193° |
| 2026-05-06 21:52 | 50.15459 | 9.02532 | 4980 ft | 231 kts | 221° |
| 2026-05-06 21:52 | 50.14364 | 9.00733 | 4977 ft | 230 kts | 236° |
| 2026-05-06 21:53 | 50.13592 | 8.98583 | 4978 ft | 228 kts | 246° |
| 2026-05-06 21:53 | 50.12989 | 8.96279 | 4981 ft | 229 kts | 250° |
| 2026-05-06 21:53 | 50.12444 | 8.93983 | 4977 ft | 222 kts | 250° |
| 2026-05-06 21:53 | 50.11920 | 8.91788 | 4881 ft | 216 kts | 250° |
| 2026-05-06 21:54 | 50.11391 | 8.89570 | 4618 ft | 221 kts | 250° |
| 2026-05-06 21:54 | 50.10862 | 8.87357 | 4310 ft | 217 kts | 251° |
| 2026-05-06 21:54 | 50.10333 | 8.85133 | 4010 ft | 220 kts | 251° |
| 2026-05-06 21:54 | 50.09803 | 8.82915 | 3713 ft | 217 kts | 251° |
| 2026-05-06 21:55 | 50.09284 | 8.80743 | 3423 ft | 217 kts | 252° |
| 2026-05-06 21:55 | 50.08760 | 8.78542 | 3134 ft | 216 kts | 251° |
| 2026-05-06 21:55 | 50.08241 | 8.76374 | 2840 ft | 212 kts | 252° |
| 2026-05-06 21:55 | 50.07731 | 8.74236 | 2550 ft | 210 kts | 252° |
| 2026-05-06 21:56 | 50.07222 | 8.72105 | 2270 ft | 211 kts | 252° |
| 2026-05-06 21:56 | 50.06715 | 8.69985 | 1967 ft | 206 kts | 252° |
| 2026-05-06 21:56 | 50.06217 | 8.67899 | 1706 ft | 206 kts | 252° |
| 2026-05-06 21:56 | 50.05719 | 8.65816 | 1418 ft | 205 kts | 251° |
| 2026-05-06 21:57 | 50.05222 | 8.63733 | 1130 ft | 206 kts | 251° |
| 2026-05-06 21:57 | 50.04723 | 8.61644 | 845 ft | 202 kts | 251° |
| 2026-05-06 21:57 | 50.04277 | 8.59759 | 582 ft | 171 kts | 252° |
| 2026-05-06 21:57 | 50.03893 | 8.58214 | 387 ft | 142 kts | 251° |
| 2026-05-06 21:58 | 50.03599 | 8.56941 | 364 ft | 100 kts | 250° |
| 2026-05-06 21:58 | 50.03432 | 8.56242 | 367 ft | 46 kts | 249° |
| 2026-05-06 21:58 | 50.03345 | 8.55878 | 362 ft | 35 kts | 251° |
| 2026-05-06 21:58 | 50.03312 | 8.55545 | 358 ft | 29 kts | 276° |
| 2026-05-06 21:59 | 50.03337 | 8.55284 | 362 ft | 14 kts | 280° |
| 2026-05-06 21:59 | 50.03353 | 8.55142 | 365 ft | 7 kts | 279° |
| 2026-05-06 21:59 | 50.03356 | 8.55118 | 364 ft | 4 kts | 279° |
| 2026-05-06 21:59 | 50.03359 | 8.55089 | 366 ft | 0 kts | 279° |
| 2026-05-06 22:00 | 50.03363 | 8.55075 | 370 ft | 4 kts | 292° |
| 2026-05-06 22:00 | 50.03387 | 8.55063 | 370 ft | 4 kts | 18° |
| 2026-05-06 22:00 | 50.03406 | 8.55118 | 364 ft | 8 kts | 68° |
| 2026-05-06 22:01 | 50.03433 | 8.55225 | 367 ft | 13 kts | 69° |
| 2026-05-06 22:01 | 50.03470 | 8.55378 | 369 ft | 17 kts | 69° |
| 2026-05-06 22:01 | 50.03515 | 8.55571 | 367 ft | 21 kts | 70° |
| 2026-05-06 22:01 | 50.03569 | 8.55797 | 370 ft | 24 kts | 71° |
| 2026-05-06 22:02 | 50.03628 | 8.56044 | 368 ft | 22 kts | 69° |
| 2026-05-06 22:02 | 50.03682 | 8.56265 | 371 ft | 23 kts | 69° |
| 2026-05-06 22:02 | 50.03739 | 8.56506 | 372 ft | 21 kts | 70° |
| 2026-05-06 22:02 | 50.03782 | 8.56686 | 372 ft | 19 kts | 70° |
| 2026-05-06 22:03 | 50.03833 | 8.56899 | 368 ft | 23 kts | 69° |
| 2026-05-06 22:03 | 50.03891 | 8.57146 | 368 ft | 26 kts | 70° |
| 2026-05-06 22:03 | 50.03956 | 8.57417 | 370 ft | 27 kts | 69° |
| 2026-05-06 22:03 | 50.04021 | 8.57688 | 367 ft | 24 kts | 70° |
| 2026-05-06 22:04 | 50.04080 | 8.57931 | 367 ft | 25 kts | 69° |
| 2026-05-06 22:04 | 50.04136 | 8.58163 | 366 ft | 24 kts | 70° |
| 2026-05-06 22:04 | 50.04196 | 8.58415 | 367 ft | 26 kts | 70° |
| 2026-05-06 22:04 | 50.04260 | 8.58688 | 369 ft | 28 kts | 70° |
| 2026-05-06 22:05 | 50.04309 | 8.58892 | 367 ft | 19 kts | 69° |
| 2026-05-06 22:05 | 50.04359 | 8.59095 | 368 ft | 18 kts | 69° |
| 2026-05-06 22:05 | 50.04407 | 8.59291 | 368 ft | 20 kts | 69° |
| 2026-05-06 22:05 | 50.04438 | 8.59417 | 367 ft | 14 kts | 69° |
| 2026-05-06 22:06 | 50.04443 | 8.59437 | 369 ft | 1 kts | 69° |
| 2026-05-06 22:06 | 50.04465 | 8.59471 | 368 ft | 6 kts | 13° |
| 2026-05-06 22:06 | 50.04531 | 8.59474 | 366 ft | 12 kts | 0° |
| 2026-05-06 22:06 | 50.04626 | 8.59465 | 366 ft | 15 kts | 356° |
| 2026-05-06 22:07 | 50.04731 | 8.59425 | 369 ft | 15 kts | 340° |
| 2026-05-06 22:07 | 50.04832 | 8.59368 | 368 ft | 15 kts | 341° |
| 2026-05-06 22:07 | 50.04939 | 8.59369 | 366 ft | 14 kts | 349° |
| 2026-05-06 22:07 | 50.05029 | 8.59320 | 367 ft | 14 kts | 339° |
| 2026-05-06 22:08 | 50.05075 | 8.59267 | 367 ft | 8 kts | 300° |
| 2026-05-06 22:08 | 50.05071 | 8.59169 | 367 ft | 11 kts | 250° |
| 2026-05-06 22:08 | 50.05046 | 8.59071 | 369 ft | 10 kts | 249° |
| 2026-05-06 22:08 | 50.05035 | 8.59027 | 366 ft | 2 kts | 250° |
| 2026-05-06 22:09 | 50.05044 | 8.58998 | 367 ft | 4 kts | 322° |
| 2026-05-06 22:09 | 50.05080 | 8.58969 | 369 ft | 8 kts | 335° |
| 2026-05-06 22:09 | 50.05102 | 8.58955 | 365 ft | 0 kts | 338° |